Greenwood Leflore Airport
KGWO : rendu visible

Aérodrome :











RETROUVEZ-NOUS SUR...

 
LOGIN :

S'inscrire | Disclaimer

   EN    FR    IT 

 









Légende :    VFR   VFR Marginal   IFR   IFR Intensif   IFR Très Intensif
Visi : 
Plafond : 
>= 8 km
>= 3000ft
5 à 8 km
1000 à 3000 ft
1500m à 5 km
500 à 1000 ft
800 à 1500m
200 à 500 ft
< 800m
< 200 ft
Symboles :   Orages  Brouillard  Fortes neiges  Fortes précipitations  Vent > 20 kt






- Altitude de l'aérodrome : 162 ft


KGWO - Greenwood Leflore

DERNIER METAR :
  • 121753Z AUTO 02013G23KT 10SM CLR 01/M08 A3049 RMK AO2 SLP325 T00111083 10011 21039 58013

METARs EXPIRÉS :
  • 121653Z AUTO 35011G17KT 320V030 10SM CLR 00/M08 A3052 RMK AO2 SLP336 T00001078
  • 121553Z AUTO 36015G20KT 10SM FEW026 M02/M08 A3053 RMK AO2 SLP340 T10171083

TAF KGWO
Valide du 12 à 18h jusqu'au 13 à 18h UTC


121720Z 1218/1318 36016G24KT P6SM SKC
FM130000 36007KT P6SM SKC



MET'MAP, la Météo Aéronautique d'un coup d'oeil ! - Copyright ORBIFLY Décembre 2007 - Disclaimer

ORBIFLY MET'MAP TEAM :

Programmation & Développement : Alexandra Zaïnal
Conception & Développement : Baudouin d'Aumeries
Co-Programmation & Développement : Marc-Olivier Méhu
Soutien technique & logistique : Manuel Goepfert

Contact : metmap@orbifly.com




SOURCES & CREDITS :

   NOAA       Earth
Advisory